Time;durP1;ratioP1;P1;durP2;ratioP2;P2;SDS_P1;SDS_P2;PMS_P1;PMS_P2;Temp;Humidity;BMP_temperature;BMP_pressure;BME280_temperature;BME280_humidity;BME280_pressure;Samples;Min_cycle;Max_cycle;Signal;HPM_P1;HPM_P2
2021/11/11 00:00:44;;;;;;;115.20;86.70;;;2.10;99.90;;;;;;5079304;28;20250;-85
2021/11/11 00:03:10;;;;;;;115.20;93.47;;;2.10;99.90;;;;;;5078398;28;20423;-85
2021/11/11 00:05:36;;;;;;;105.85;81.78;;;2.10;99.90;;;;;;5078021;28;20174;-85
2021/11/11 00:08:04;;;;;;;119.43;107.00;;;2.10;99.90;;;;;;5078216;28;20171;-85
2021/11/11 00:10:30;;;;;;;115.68;103.20;;;2.20;99.90;;;;;;5096956;28;20943;-85
2021/11/11 00:12:57;;;;;;;141.50;127.03;;;2.10;99.90;;;;;;5078297;28;20195;-85
2021/11/11 00:15:23;;;;;;;120.63;107.70;;;2.10;99.90;;;;;;5078231;28;20166;-84
2021/11/11 00:17:50;;;;;;;122.75;108.97;;;2.00;99.90;;;;;;5078423;28;20640;-85
2021/11/11 00:20:20;;;;;;;117.45;104.82;;;2.00;99.90;;;;;;5096387;28;20163;-85
2021/11/11 00:22:47;;;;;;;119.07;104.47;;;1.90;99.90;;;;;;5096978;28;20205;-85
2021/11/11 00:25:14;;;;;;;113.07;99.10;;;1.90;99.90;;;;;;5096021;28;20167;-85
2021/11/11 00:27:40;;;;;;;107.53;83.25;;;1.90;99.90;;;;;;5096589;28;20163;-85
2021/11/11 00:30:09;;;;;;;125.43;112.05;;;1.90;99.90;;;;;;5078165;28;20191;-85
2021/11/11 00:32:39;;;;;;;112.78;100.47;;;1.80;99.90;;;;;;5078064;28;20190;-85
2021/11/11 00:35:18;;;;;;;115.60;103.28;;;1.70;99.90;;;;;;5096312;28;20259;-85
2021/11/11 00:37:43;;;;;;;111.97;99.15;;;1.60;99.90;;;;;;5078006;28;20155;-85
2021/11/11 00:40:10;;;;;;;108.40;91.53;;;1.60;99.90;;;;;;5077770;28;20195;-85
2021/11/11 00:42:36;;;;;;;102.18;78.43;;;1.60;99.90;;;;;;5096609;28;20493;-85
2021/11/11 00:45:03;;;;;;;112.53;99.80;;;1.60;99.90;;;;;;5078595;28;20199;-85
2021/11/11 00:47:28;;;;;;;120.25;107.65;;;1.50;99.90;;;;;;5095716;28;20630;-85
2021/11/11 00:49:54;;;;;;;107.77;95.93;;;1.50;99.90;;;;;;5078328;28;20194;-85
2021/11/11 00:52:20;;;;;;;126.37;113.67;;;1.60;99.90;;;;;;5095756;28;20262;-85
2021/11/11 00:54:46;;;;;;;117.90;105.13;;;1.70;99.90;;;;;;5077783;28;20171;-84
2021/11/11 00:57:11;;;;;;;108.17;90.33;;;1.70;99.90;;;;;;5096078;28;20167;-85
2021/11/11 00:59:42;;;;;;;119.43;107.33;;;1.70;99.90;;;;;;5095824;28;20191;-85
2021/11/11 01:02:09;;;;;;;132.85;119.00;;;1.70;99.90;;;;;;5077437;28;20171;-85
2021/11/11 01:04:40;;;;;;;126.57;113.30;;;1.70;99.90;;;;;;5077594;28;20236;-85
2021/11/11 01:07:08;;;;;;;135.93;122.05;;;1.70;99.90;;;;;;5098462;28;20239;-85
2021/11/11 01:09:35;;;;;;;140.20;126.68;;;1.60;99.90;;;;;;5080921;28;20223;-85
2021/11/11 01:12:02;;;;;;;132.43;118.90;;;1.70;99.90;;;;;;5099717;28;20709;-85
2021/11/11 01:14:31;;;;;;;130.27;116.82;;;1.70;99.90;;;;;;5080895;28;20644;-85
2021/11/11 01:16:56;;;;;;;139.68;124.28;;;1.70;99.90;;;;;;5081114;28;20174;-85
2021/11/11 01:19:24;;;;;;;135.03;121.23;;;1.70;99.90;;;;;;5099469;28;20242;-85
2021/11/11 01:21:50;;;;;;;146.35;132.48;;;1.80;99.90;;;;;;5098761;28;20665;-85
2021/11/11 01:24:18;;;;;;;138.80;125.22;;;1.70;99.90;;;;;;5080839;28;20171;-85
2021/11/11 01:26:45;;;;;;;142.82;129.25;;;1.70;99.90;;;;;;5081544;28;20305;-85
2021/11/11 01:29:10;;;;;;;148.13;133.80;;;1.80;99.90;;;;;;5081713;28;20187;-83
2021/11/11 01:31:36;;;;;;;151.17;137.63;;;1.90;99.90;;;;;;5101958;28;20242;-84
2021/11/11 01:34:02;;;;;;;148.45;134.32;;;2.00;99.90;;;;;;5084686;28;20168;-84
2021/11/11 01:36:28;;;;;;;148.10;132.23;;;2.10;99.90;;;;;;5099438;28;20166;-85
2021/11/11 01:38:53;;;;;;;164.87;150.37;;;2.20;99.90;;;;;;5098854;28;20196;-85
2021/11/11 01:41:19;;;;;;;153.13;138.93;;;2.20;99.90;;;;;;5080334;28;20167;-85
2021/11/11 01:43:45;;;;;;;159.80;144.80;;;2.20;99.90;;;;;;5080036;28;20167;-84
2021/11/11 01:46:11;;;;;;;175.73;160.47;;;2.30;99.90;;;;;;5098716;28;20159;-85
2021/11/11 01:48:37;;;;;;;165.60;148.20;;;2.30;99.90;;;;;;5098014;28;20428;-85
2021/11/11 01:51:03;;;;;;;188.10;172.60;;;2.40;99.90;;;;;;5098108;28;20178;-85
2021/11/11 01:53:29;;;;;;;200.37;184.57;;;2.40;99.90;;;;;;5097776;28;20183;-85
2021/11/11 01:55:55;;;;;;;190.47;174.53;;;2.40;99.90;;;;;;5097822;28;20531;-85
2021/11/11 01:58:21;;;;;;;164.20;149.67;;;2.50;99.90;;;;;;5097650;28;20538;-85
2021/11/11 02:00:55;;;;;;;197.97;181.90;;;2.50;99.90;;;;;;5098249;28;20823;-85
2021/11/11 02:03:22;;;;;;;207.57;190.60;;;2.60;99.90;;;;;;5097570;28;20815;-84
2021/11/11 02:05:48;;;;;;;189.73;174.27;;;2.60;99.90;;;;;;5097780;28;20162;-85
2021/11/11 02:08:14;;;;;;;192.55;176.75;;;2.60;99.90;;;;;;5097374;28;20182;-84
2021/11/11 02:10:40;;;;;;;220.43;204.53;;;2.70;99.90;;;;;;5097747;28;20295;-85
2021/11/11 02:13:07;;;;;;;224.95;208.15;;;2.70;99.90;;;;;;5097165;28;20543;-85
2021/11/11 02:15:33;;;;;;;229.02;212.63;;;2.70;99.90;;;;;;5097216;28;20232;-85
2021/11/11 02:18:00;;;;;;;223.97;206.83;;;2.80;99.90;;;;;;5096875;28;20152;-85
2021/11/11 02:20:31;;;;;;;172.52;156.30;;;2.80;99.90;;;;;;5079450;28;20757;-85
2021/11/11 02:23:00;;;;;;;214.90;198.57;;;2.90;99.90;;;;;;5097085;28;20579;-85
2021/11/11 02:25:27;;;;;;;198.43;182.90;;;2.90;99.90;;;;;;5098008;28;20170;-85
2021/11/11 02:28:07;;;;;;;199.68;184.07;;;2.90;99.90;;;;;;5079986;28;20668;-85
2021/11/11 02:30:34;;;;;;;186.60;171.30;;;2.90;99.90;;;;;;5079429;28;20182;-85
2021/11/11 02:33:00;;;;;;;219.80;203.00;;;2.80;99.90;;;;;;5079051;28;20199;-84
2021/11/11 02:35:27;;;;;;;191.07;176.07;;;2.80;99.90;;;;;;5097898;28;20559;-85
2021/11/11 02:37:53;;;;;;;198.05;182.50;;;2.70;99.90;;;;;;5097343;28;20185;-85
2021/11/11 02:40:27;;;;;;;203.17;187.70;;;2.70;99.90;;;;;;5078804;28;20677;-85
2021/11/11 02:42:53;;;;;;;202.10;186.80;;;2.60;99.90;;;;;;5078761;28;20166;-85
2021/11/11 02:45:22;;;;;;;173.68;159.40;;;2.60;99.90;;;;;;5097118;28;20163;-85
2021/11/11 02:47:50;;;;;;;231.38;214.00;;;2.60;99.90;;;;;;5096997;28;20194;-85
2021/11/11 02:50:19;;;;;;;197.00;181.15;;;2.50;99.90;;;;;;5078876;28;20167;-85
2021/11/11 02:52:48;;;;;;;213.48;196.52;;;2.60;99.90;;;;;;5096805;28;20187;-85
2021/11/11 02:55:14;;;;;;;209.15;192.35;;;2.60;99.90;;;;;;5096930;28;20703;-85
2021/11/11 02:57:42;;;;;;;208.07;191.43;;;2.60;99.90;;;;;;5096487;28;20250;-85
2021/11/11 03:00:19;;;;;;;219.70;202.68;;;2.60;99.90;;;;;;5096963;28;20428;-85
2021/11/11 03:02:46;;;;;;;194.00;178.98;;;2.60;99.90;;;;;;5096873;28;20151;-86
2021/11/11 03:05:21;;;;;;;192.25;177.30;;;2.60;99.90;;;;;;5079267;28;20169;-86
2021/11/11 03:07:47;;;;;;;211.65;195.48;;;2.50;99.90;;;;;;5097321;28;20151;-86
2021/11/11 03:10:19;;;;;;;163.67;149.90;;;2.50;99.90;;;;;;5078433;28;20670;-85
2021/11/11 03:12:46;;;;;;;178.20;162.93;;;2.40;99.90;;;;;;5078243;28;20519;-85
2021/11/11 03:15:12;;;;;;;156.35;142.45;;;2.40;99.90;;;;;;5096908;28;20213;-85
2021/11/11 03:17:39;;;;;;;186.48;170.18;;;2.30;99.90;;;;;;5078417;28;20217;-85
2021/11/11 03:20:06;;;;;;;146.90;133.07;;;2.30;99.90;;;;;;5078792;28;20658;-85
2021/11/11 03:22:32;;;;;;;184.27;168.98;;;2.30;99.90;;;;;;5097386;28;20163;-85
2021/11/11 03:24:59;;;;;;;151.93;138.03;;;2.20;99.90;;;;;;5097086;28;20677;-85
2021/11/11 03:27:25;;;;;;;171.88;157.18;;;2.00;99.90;;;;;;5096513;28;20409;-85
2021/11/11 03:29:52;;;;;;;161.10;146.38;;;1.90;99.90;;;;;;5095861;28;20186;-85
2021/11/11 03:32:19;;;;;;;159.68;146.05;;;1.80;99.90;;;;;;5096852;28;20559;-85
2021/11/11 03:34:45;;;;;;;150.13;135.98;;;1.80;99.90;;;;;;5078430;28;20171;-85
2021/11/11 03:37:11;;;;;;;182.50;167.43;;;1.80;99.90;;;;;;5096872;28;20159;-85
2021/11/11 03:39:37;;;;;;;169.60;154.23;;;1.90;99.90;;;;;;5096095;28;20569;-85
2021/11/11 03:42:04;;;;;;;168.63;154.43;;;1.90;99.90;;;;;;5096690;28;20454;-85
2021/11/11 03:44:30;;;;;;;184.77;169.88;;;1.80;99.90;;;;;;5096781;28;20166;-86
2021/11/11 03:46:59;;;;;;;199.90;184.63;;;1.80;99.90;;;;;;5096904;28;20205;-85
2021/11/11 03:49:25;;;;;;;209.77;194.02;;;1.70;99.90;;;;;;5078672;28;20429;-85
2021/11/11 03:51:51;;;;;;;196.57;181.40;;;1.80;99.90;;;;;;5096883;28;20155;-85
2021/11/11 03:54:21;;;;;;;192.70;177.23;;;1.90;99.90;;;;;;5078385;28;20401;-85
2021/11/11 03:56:50;;;;;;;158.13;144.45;;;1.80;99.90;;;;;;5097304;28;20492;-85
2021/11/11 03:59:16;;;;;;;172.98;159.13;;;1.80;99.90;;;;;;5096577;28;20171;-85
2021/11/11 04:01:43;;;;;;;142.68;129.57;;;1.80;99.90;;;;;;5096422;28;20166;-85
2021/11/11 04:04:10;;;;;;;196.13;180.85;;;1.80;99.90;;;;;;5096725;28;20171;-85
2021/11/11 04:06:36;;;;;;;161.52;147.80;;;1.80;99.90;;;;;;5096460;28;20166;-84
2021/11/11 04:09:03;;;;;;;193.20;177.95;;;1.70;99.90;;;;;;5096180;28;20179;-85
2021/11/11 04:11:31;;;;;;;184.50;169.65;;;1.70;99.90;;;;;;5096822;28;20649;-85
2021/11/11 04:13:57;;;;;;;172.80;159.02;;;1.70;99.90;;;;;;5078507;28;20198;-85
2021/11/11 04:16:23;;;;;;;160.43;147.00;;;1.70;99.90;;;;;;5078456;28;20163;-85
2021/11/11 04:18:50;;;;;;;128.90;115.88;;;1.70;99.90;;;;;;5078956;28;20183;-85
2021/11/11 04:21:17;;;;;;;143.27;130.38;;;1.60;99.90;;;;;;5096906;28;20167;-85
2021/11/11 04:23:44;;;;;;;171.57;157.25;;;1.60;99.90;;;;;;5096886;28;20159;-85
2021/11/11 04:26:26;;;;;;;154.80;140.98;;;1.60;99.90;;;;;;5096596;28;20234;-85
2021/11/11 04:28:58;;;;;;;137.45;124.20;;;1.60;99.90;;;;;;5079022;28;20218;-85
2021/11/11 04:31:36;;;;;;;165.10;151.38;;;1.50;99.90;;;;;;5078971;28;20167;-85
2021/11/11 04:34:05;;;;;;;121.72;109.43;;;1.50;99.90;;;;;;5097639;28;20163;-85
2021/11/11 05:03:21;;;;;;;146.07;132.20;;;1.20;99.90;;;;;;5100437;28;20225;-85
2021/11/11 05:05:50;;;;;;;163.07;148.80;;;1.20;99.90;;;;;;5082278;28;20563;-85
2021/11/11 05:08:15;;;;;;;152.27;138.02;;;1.40;99.90;;;;;;5081922;28;20685;-85
2021/11/11 05:10:41;;;;;;;144.20;131.23;;;1.30;99.90;;;;;;5099332;28;20167;-85
2021/11/11 05:13:07;;;;;;;158.30;144.63;;;1.40;99.90;;;;;;5099265;28;20244;-85
2021/11/11 05:15:33;;;;;;;186.77;172.00;;;1.40;99.90;;;;;;5081109;28;20490;-85
2021/11/11 05:17:59;;;;;;;147.20;134.07;;;1.30;99.90;;;;;;5081056;28;20250;-85
2021/11/11 05:20:25;;;;;;;179.03;164.50;;;1.30;99.90;;;;;;5099397;28;20885;-85
2021/11/11 05:22:53;;;;;;;147.43;134.17;;;1.30;99.90;;;;;;5100040;28;20167;-85
2021/11/11 05:25:20;;;;;;;155.45;141.85;;;1.30;99.90;;;;;;5100307;28;20167;-85
2021/11/11 05:27:46;;;;;;;174.38;159.18;;;1.30;99.90;;;;;;5081629;28;20196;-85
2021/11/11 05:30:14;;;;;;;168.13;154.05;;;1.30;99.90;;;;;;5099321;28;20179;-85
2021/11/11 05:32:40;;;;;;;195.40;180.02;;;1.30;99.90;;;;;;5099808;28;20271;-85
2021/11/11 05:35:09;;;;;;;175.48;160.50;;;1.40;99.90;;;;;;5099589;28;20202;-85
2021/11/11 05:37:35;;;;;;;177.65;162.27;;;1.40;99.90;;;;;;5081001;28;20174;-85
2021/11/11 05:40:01;;;;;;;166.63;152.25;;;1.50;99.90;;;;;;5081691;28;20207;-86
2021/11/11 05:42:27;;;;;;;179.40;164.52;;;1.50;99.90;;;;;;5100400;28;20194;-85
2021/11/11 05:44:53;;;;;;;160.60;146.67;;;1.50;99.90;;;;;;5099525;28;20159;-85
2021/11/11 05:47:18;;;;;;;200.33;183.57;;;1.50;99.90;;;;;;5080980;28;20163;-85
2021/11/11 05:49:44;;;;;;;151.97;138.67;;;1.60;99.90;;;;;;5098669;28;20210;-85
2021/11/11 05:52:11;;;;;;;190.17;173.83;;;1.50;99.90;;;;;;5080261;28;20268;-85
2021/11/11 05:54:40;;;;;;;149.15;135.35;;;1.50;99.90;;;;;;5080634;28;20433;-85
2021/11/11 05:57:07;;;;;;;178.30;163.43;;;1.40;99.90;;;;;;5099159;28;20165;-85
2021/11/11 05:59:36;;;;;;;181.38;166.50;;;1.30;99.90;;;;;;5099073;28;20570;-85
2021/11/11 06:02:05;;;;;;;161.82;148.35;;;1.40;99.90;;;;;;5099235;28;20159;-85
2021/11/11 06:04:30;;;;;;;165.95;152.00;;;1.40;99.90;;;;;;5099420;28;20242;-85
2021/11/11 06:06:56;;;;;;;179.93;164.97;;;1.40;99.90;;;;;;5099395;28;20268;-85
2021/11/11 06:09:22;;;;;;;157.27;143.60;;;1.50;99.90;;;;;;5081199;28;20183;-86
2021/11/11 06:11:47;;;;;;;185.67;170.30;;;1.50;99.90;;;;;;5080807;28;20196;-85
2021/11/11 06:14:13;;;;;;;167.67;152.67;;;1.50;99.90;;;;;;5081033;28;20627;-86
2021/11/11 06:16:38;;;;;;;152.00;138.30;;;1.50;99.90;;;;;;5080895;28;20198;-85
2021/11/11 06:19:18;;;;;;;192.27;177.67;;;1.40;99.90;;;;;;5081333;28;20194;-85
2021/11/11 06:21:47;;;;;;;195.68;180.40;;;1.50;99.90;;;;;;5099112;28;20167;-85
2021/11/11 06:24:15;;;;;;;190.50;174.45;;;1.50;99.90;;;;;;5100124;28;20166;-85
2021/11/11 06:26:41;;;;;;;166.10;152.05;;;1.50;99.90;;;;;;5082022;28;20179;-85
2021/11/11 06:29:08;;;;;;;189.25;172.07;;;1.50;99.90;;;;;;5100137;28;20179;-85
2021/11/11 06:31:34;;;;;;;165.48;150.85;;;1.50;99.90;;;;;;5081807;28;20163;-85
2021/11/11 06:34:01;;;;;;;209.10;192.02;;;1.50;99.90;;;;;;5099851;28;20191;-85
2021/11/11 06:36:27;;;;;;;183.95;168.93;;;1.60;99.90;;;;;;5081236;28;20539;-85
2021/11/11 06:38:53;;;;;;;181.07;166.60;;;1.60;99.90;;;;;;5099088;28;20191;-85
2021/11/11 06:41:19;;;;;;;217.35;199.85;;;1.60;99.90;;;;;;5099352;28;20182;-85
2021/11/11 06:43:47;;;;;;;200.80;184.60;;;1.60;99.90;;;;;;5081068;28;20163;-85
2021/11/11 06:46:14;;;;;;;181.18;166.45;;;1.70;99.90;;;;;;5080696;28;20163;-85
2021/11/11 06:48:46;;;;;;;205.02;189.48;;;1.70;99.90;;;;;;5153638;22;20307;-84
2021/11/11 06:51:20;;;;;;;188.07;172.48;;;1.70;99.90;;;;;;5079854;28;20152;-84
2021/11/11 06:53:46;;;;;;;162.48;147.43;;;1.60;99.90;;;;;;5079042;28;20175;-84
2021/11/11 06:56:15;;;;;;;176.03;160.47;;;1.60;99.90;;;;;;5079616;28;20159;-83
2021/11/11 06:58:50;;;;;;;172.63;157.98;;;1.70;99.90;;;;;;5076856;28;20461;-85
2021/11/11 07:01:22;;;;;;;192.32;176.27;;;1.60;99.90;;;;;;5076623;28;20171;-85
2021/11/11 07:03:48;;;;;;;176.45;161.27;;;1.70;99.90;;;;;;5077821;28;20183;-85
2021/11/11 07:06:17;;;;;;;143.23;129.80;;;1.70;99.90;;;;;;5077300;28;20160;-84
2021/11/11 07:09:14;;;;;;;154.75;137.60;;;1.70;99.90;;;;;;5077289;28;20188;-84
2021/11/11 07:12:08;;;;;;;162.65;148.50;;;1.80;99.90;;;;;;5072128;28;20266;-85
2021/11/11 07:14:56;;;;;;;129.50;116.35;;;1.90;99.90;;;;;;5075728;28;20647;-84
2021/11/11 07:17:43;;;;;;;147.45;133.52;;;1.90;99.90;;;;;;5075393;28;20152;-85
2021/11/11 07:20:53;;;;;;;178.30;163.55;;;1.90;99.90;;;;;;5075464;28;20191;-85
2021/11/11 07:26:33;;;;;;;130.05;116.53;;;1.90;99.90;;;;;;5015792;28;20620;-84
2021/11/11 07:35:49;;;;;;;134.00;120.65;;;2.00;99.90;;;;;;5078482;28;20627;-85
2021/11/11 07:41:45;;;;;;;154.95;139.80;;;2.10;99.90;;;;;;5019464;28;20185;-85
2021/11/11 07:51:34;;;;;;;126.63;113.15;;;2.10;99.90;;;;;;4917387;29;20592;-85
2021/11/11 07:54:40;;;;;;;160.88;145.73;;;2.20;99.90;;;;;;4990197;28;20216;-83
2021/11/11 07:57:23;;;;;;;116.20;97.13;;;2.20;99.90;;;;;;4973102;28;20230;-83
2021/11/11 08:09:35;;;;;;;;;;;;;;;;;;;;;
2021/11/11 08:12:54;;;;;;;;;;;;;;;;;;;;;
2021/11/11 08:15:29;;;;;;;150.52;136.75;;;2.40;99.90;;;;;;4907797;29;20172;-83
2021/11/11 08:18:12;;;;;;;169.43;154.70;;;2.30;99.90;;;;;;4959698;28;20263;-83
2021/11/11 08:21:14;;;;;;;170.02;154.90;;;2.30;99.90;;;;;;4994639;28;20179;-84
2021/11/11 08:31:17;;;;;;;137.80;124.07;;;2.40;99.90;;;;;;4846068;29;20236;-84
2021/11/11 08:34:09;;;;;;;148.48;134.63;;;2.50;99.90;;;;;;4896578;29;20209;-83
2021/11/11 08:48:12;;;;;;;;;;;;;;;;;;;;;
2021/11/11 09:13:14;;;;;;;;;;;;;;;;;;;;;
2021/11/11 09:35:01;;;;;;;;;;;;;;;;;;;;;
2021/11/11 10:06:46;;;;;;;;;;;;;;;;;;;;;
2021/11/11 10:10:25;;;;;;;226.35;205.52;;;4.40;99.90;;;;;;4937871;29;20212;-83
2021/11/11 10:13:08;;;;;;;176.48;159.20;;;4.40;99.90;;;;;;4952794;28;20226;-83
2021/11/11 10:19:54;;;;;;;191.68;173.18;;;4.30;99.90;;;;;;4918999;29;20201;-82
2021/11/11 10:26:38;;;;;;;193.52;174.75;;;4.40;99.90;;;;;;4938753;29;20179;-82
2021/11/11 10:30:00;;;;;;;;;;;;;;;;;;;;;
2021/11/11 10:33:24;;;;;;;192.93;175.23;;;4.60;99.90;;;;;;4926958;29;20200;-83
2021/11/11 10:59:33;;;;;;;187.95;171.00;;;5.00;99.90;;;;;;4970845;28;20199;-84
2021/11/11 11:02:10;;;;;;;209.23;191.02;;;5.00;99.90;;;;;;5017485;28;20162;-84
2021/11/11 11:33:22;;;;;;;255.55;234.05;;;5.50;99.90;;;;;;5097305;28;20600;-84
2021/11/11 11:37:01;;;;;;;213.52;193.50;;;5.70;99.90;;;;;;5081527;28;20199;-84
2021/11/11 11:40:36;;;;;;;222.80;203.50;;;5.80;99.90;;;;;;4997454;28;20301;-84
2021/11/11 11:46:25;;;;;;;217.65;199.45;;;5.90;99.90;;;;;;5088510;28;20185;-84
2021/11/11 12:39:37;;;;;;;195.95;178.38;;;6.50;99.90;;;;;;5082744;22;20359;-83
2021/11/11 12:43:14;;;;;;;208.48;190.13;;;6.70;99.90;;;;;;5095250;28;20147;-83
2021/11/11 12:50:14;;;;;;;201.60;183.68;;;6.80;99.90;;;;;;5162130;22;20234;-87
2021/11/11 12:52:47;;;;;;;193.57;175.80;;;6.80;99.90;;;;;;5096156;28;20264;-86
2021/11/11 12:55:27;;;;;;;198.18;180.55;;;6.80;99.90;;;;;;5096687;28;20156;-86
2021/11/11 13:02:23;;;;;;;;;;;;;;;;;;;;;
2021/11/11 13:05:14;;;;;;;153.38;137.55;;;7.20;99.90;;;;;;5052664;28;20264;-86
2021/11/11 13:08:28;;;;;;;141.15;124.75;;;7.20;99.90;;;;;;5058858;28;20171;-87
2021/11/11 13:11:48;;;;;;;151.27;134.60;;;7.30;99.90;;;;;;5032830;28;20167;-87
2021/11/11 13:14:40;;;;;;;143.80;127.13;;;7.40;99.90;;;;;;5002758;28;20205;-87
2021/11/11 13:17:53;;;;;;;139.88;121.30;;;7.50;99.90;;;;;;5099680;28;20530;-87
2021/11/11 13:20:57;;;;;;;137.32;111.63;;;7.40;99.90;;;;;;5053885;28;20186;-87
2021/11/11 13:23:50;;;;;;;133.75;102.82;;;7.50;99.90;;;;;;5100102;28;20258;-86
2021/11/11 13:59:09;;;;;;;148.63;95.32;;;7.90;99.90;;;;;;5058021;28;20286;-85
2021/11/11 16:22:10;;;;;;;127.60;76.47;;;5.80;99.90;;;;;;5076892;28;20189;-86
2021/11/11 16:29:03;;;;;;;120.60;78.00;;;5.60;99.90;;;;;;5037848;28;20657;-86
2021/11/11 16:32:15;;;;;;;124.18;86.45;;;5.40;99.90;;;;;;5074115;28;20232;-86
2021/11/11 16:35:20;;;;;;;122.95;86.43;;;5.30;99.90;;;;;;5056984;28;20195;-86
2021/11/11 16:38:02;;;;;;;146.13;130.32;;;5.30;99.90;;;;;;5079711;28;20160;-86
2021/11/11 16:40:32;;;;;;;152.73;134.63;;;5.10;99.90;;;;;;5079447;28;20167;-87
2021/11/11 16:43:01;;;;;;;156.88;140.98;;;5.10;99.90;;;;;;5080515;28;20168;-86
2021/11/11 16:45:35;;;;;;;147.20;131.95;;;5.10;99.90;;;;;;5080965;28;20241;-86
2021/11/11 16:48:07;;;;;;;140.48;111.80;;;5.10;99.90;;;;;;5079639;28;20651;-86
2021/11/11 16:50:36;;;;;;;181.77;164.35;;;5.00;99.90;;;;;;5081490;28;20159;-86
2021/11/11 16:53:05;;;;;;;160.63;144.68;;;4.90;99.90;;;;;;5079546;28;20206;-86
2021/11/11 16:55:34;;;;;;;156.80;141.25;;;4.90;99.90;;;;;;5079532;28;20160;-86
2021/11/11 16:58:14;;;;;;;167.73;151.70;;;4.90;99.90;;;;;;5079892;28;20164;-86
2021/11/11 17:00:40;;;;;;;161.10;145.05;;;4.90;99.90;;;;;;5078810;28;20511;-86
2021/11/11 17:03:06;;;;;;;139.80;124.73;;;4.80;99.90;;;;;;5078023;28;20176;-86
2021/11/11 17:05:37;;;;;;;158.07;142.37;;;4.80;99.90;;;;;;5078916;28;20414;-86
2021/11/11 17:08:06;;;;;;;159.85;143.57;;;4.70;99.90;;;;;;5078466;28;20413;-86
2021/11/11 17:10:33;;;;;;;151.40;136.15;;;4.70;99.90;;;;;;5077623;28;20199;-86
2021/11/11 17:13:08;;;;;;;155.68;139.88;;;4.60;99.90;;;;;;5077297;28;20195;-86
2021/11/11 17:15:36;;;;;;;139.20;120.20;;;4.60;99.90;;;;;;5078614;28;20167;-86
2021/11/11 17:18:04;;;;;;;150.73;135.00;;;4.50;99.90;;;;;;5076974;28;20190;-86
2021/11/11 17:20:31;;;;;;;154.68;139.23;;;4.50;99.90;;;;;;5077773;28;20178;-86
2021/11/11 17:23:00;;;;;;;144.93;129.73;;;4.50;99.90;;;;;;5077513;28;20175;-86
2021/11/11 17:25:32;;;;;;;144.32;129.25;;;4.40;99.90;;;;;;5077364;28;20255;-86
2021/11/11 17:28:15;;;;;;;153.63;137.10;;;4.50;99.90;;;;;;5078901;28;20145;-86
2021/11/11 17:30:47;;;;;;;137.90;123.43;;;4.50;99.90;;;;;;5077573;28;20170;-86
2021/11/11 17:33:14;;;;;;;148.98;133.52;;;4.50;99.90;;;;;;5061537;28;20199;-84
2021/11/11 17:35:41;;;;;;;145.20;129.73;;;4.40;99.90;;;;;;5082207;28;20156;-85
2021/11/11 17:38:07;;;;;;;152.70;136.93;;;4.30;99.90;;;;;;5080447;28;20164;-85
2021/11/11 17:40:37;;;;;;;158.25;143.05;;;4.20;99.90;;;;;;5078771;28;20187;-86
2021/11/11 17:43:08;;;;;;;146.05;130.60;;;4.10;99.90;;;;;;5076975;28;20662;-86
2021/11/11 17:45:44;;;;;;;166.57;150.27;;;4.20;99.90;;;;;;5077222;28;20240;-86
2021/11/11 17:48:11;;;;;;;156.55;140.70;;;4.10;99.90;;;;;;5075398;28;20164;-86
2021/11/11 17:50:43;;;;;;;141.73;123.47;;;4.10;99.90;;;;;;5077727;28;20628;-86
2021/11/11 17:53:09;;;;;;;142.73;127.05;;;4.20;99.90;;;;;;5079249;28;20237;-86
2021/11/11 17:55:45;;;;;;;183.57;166.30;;;4.20;99.90;;;;;;5078757;28;20175;-86
2021/11/11 17:58:11;;;;;;;147.55;131.73;;;4.20;99.90;;;;;;5077148;28;20171;-85
2021/11/11 18:00:42;;;;;;;143.77;128.88;;;4.10;99.90;;;;;;5078247;28;20695;-86
2021/11/11 18:03:09;;;;;;;158.13;141.80;;;4.10;99.90;;;;;;5077328;28;20190;-86
2021/11/11 18:05:35;;;;;;;139.15;124.18;;;4.10;99.90;;;;;;5077046;28;20551;-85
2021/11/11 18:08:29;;;;;;;155.80;139.50;;;4.20;99.90;;;;;;5077031;28;20167;-85
2021/11/11 18:10:55;;;;;;;144.90;128.70;;;4.10;99.90;;;;;;5077240;28;20426;-86
2021/11/11 18:13:27;;;;;;;140.10;125.15;;;4.00;99.90;;;;;;5078994;28;20191;-85
2021/11/11 18:15:55;;;;;;;144.77;126.53;;;3.90;99.90;;;;;;5079035;28;20156;-86
2021/11/11 18:18:23;;;;;;;136.40;121.50;;;3.90;99.90;;;;;;5079920;28;20263;-85
2021/11/11 18:20:49;;;;;;;149.32;133.25;;;3.80;99.90;;;;;;5077518;28;20267;-85
2021/11/11 18:23:18;;;;;;;153.50;137.07;;;3.80;99.90;;;;;;5078041;28;20196;-85
2021/11/11 18:25:47;;;;;;;155.73;139.15;;;3.70;99.90;;;;;;5078551;28;20406;-86
2021/11/11 18:28:13;;;;;;;139.45;116.90;;;3.70;99.90;;;;;;5078597;28;20271;-85
2021/11/11 18:30:42;;;;;;;161.30;144.37;;;3.70;99.90;;;;;;5076876;28;20658;-85
2021/11/11 18:33:14;;;;;;;156.63;137.73;;;3.70;99.90;;;;;;5077434;28;20666;-86
2021/11/11 18:35:52;;;;;;;135.38;120.15;;;3.60;99.90;;;;;;5077356;28;20172;-86
2021/11/11 18:38:26;;;;;;;142.45;112.22;;;3.70;99.90;;;;;;5077891;28;20717;-86
2021/11/11 18:40:53;;;;;;;145.40;115.18;;;3.60;99.90;;;;;;5078129;28;20190;-85
2021/11/11 18:43:23;;;;;;;172.32;153.63;;;3.60;99.90;;;;;;5075998;28;20167;-85
2021/11/11 18:46:00;;;;;;;138.65;120.05;;;3.50;99.90;;;;;;5077940;28;20561;-85
2021/11/11 18:48:42;;;;;;;139.73;113.30;;;3.50;99.90;;;;;;5111681;23;20209;-86
2021/11/11 18:51:28;;;;;;;135.00;115.32;;;3.50;99.90;;;;;;5046536;28;20559;-87
2021/11/11 18:53:55;;;;;;;148.57;129.43;;;3.50;99.90;;;;;;5046504;28;20185;-86
2021/11/11 18:56:23;;;;;;;143.05;122.38;;;3.50;99.90;;;;;;5046383;28;20166;-87
2021/11/11 18:58:51;;;;;;;140.60;115.25;;;3.50;99.90;;;;;;5046613;28;20192;-86
2021/11/11 19:01:18;;;;;;;139.32;124.72;;;3.50;99.90;;;;;;5046629;28;20172;-86
2021/11/11 19:03:45;;;;;;;132.52;103.95;;;3.40;99.90;;;;;;5046382;28;20173;-87
2021/11/11 19:09:20;;;;;;;137.00;107.68;;;3.30;99.90;;;;;;5012738;28;20227;-86
2021/11/11 19:11:53;;;;;;;130.23;102.07;;;3.30;99.90;;;;;;5046251;28;20236;-86
2021/11/11 19:14:27;;;;;;;127.80;97.55;;;3.30;99.90;;;;;;5045450;28;20242;-87
2021/11/11 19:16:57;;;;;;;142.35;126.57;;;3.30;99.90;;;;;;5046028;28;20145;-87
2021/11/11 19:19:36;;;;;;;133.45;105.90;;;3.30;99.90;;;;;;5044654;28;20193;-86
2021/11/11 19:22:02;;;;;;;129.77;100.20;;;3.20;99.90;;;;;;5049155;28;20181;-87
2021/11/11 19:24:28;;;;;;;135.48;102.38;;;3.10;99.90;;;;;;5045934;28;20166;-87
2021/11/11 19:26:54;;;;;;;131.68;102.10;;;3.10;99.90;;;;;;5044500;28;20633;-86
2021/11/11 19:29:38;;;;;;;132.23;106.68;;;3.10;99.90;;;;;;5045617;28;20216;-87
2021/11/11 19:32:15;;;;;;;126.60;90.30;;;3.10;99.90;;;;;;5045252;28;20165;-86
2021/11/11 19:34:51;;;;;;;135.68;111.03;;;3.00;99.90;;;;;;5044852;28;20228;-87
2021/11/11 19:48:01;;;;;;;123.53;93.00;;;2.90;99.90;;;;;;5045855;28;20250;-86
2021/11/11 20:06:49;;;;;;;139.77;97.72;;;2.90;99.90;;;;;;5035472;28;20204;-86
2021/11/11 20:09:18;;;;;;;127.60;87.05;;;3.00;99.90;;;;;;5044970;28;20188;-86
2021/11/11 20:14:28;;;;;;;132.00;93.05;;;3.00;99.90;;;;;;5045202;28;20184;-86
2021/11/11 20:20:02;;;;;;;125.03;82.47;;;3.10;99.90;;;;;;5045559;28;20188;-86
2021/11/11 20:33:55;;;;;;;136.02;100.22;;;3.20;99.90;;;;;;5044713;28;20192;-87
2021/11/11 20:36:38;;;;;;;134.75;112.32;;;3.20;99.90;;;;;;5044416;28;20673;-87
2021/11/11 20:53:08;;;;;;;128.13;104.97;;;3.30;99.90;;;;;;5044665;28;20223;-87
2021/11/11 20:58:52;;;;;;;125.85;99.47;;;3.30;99.90;;;;;;5044448;28;20180;-87
2021/11/11 21:01:00;;;;;;;123.65;96.65;;;3.20;99.90;;;;;;5043605;28;20641;-86
2021/11/11 21:03:41;;;;;;;127.80;106.15;;;3.10;99.90;;;;;;5044329;28;20157;-86
2021/11/11 21:17:29;;;;;;;120.60;96.97;;;3.20;99.90;;;;;;5044833;28;20184;-86
2021/11/11 21:20:07;;;;;;;117.97;98.53;;;3.20;99.90;;;;;;5044470;28;20195;-86
2021/11/11 21:22:38;;;;;;;125.78;101.30;;;3.20;99.90;;;;;;5043564;28;20165;-86
2021/11/11 21:25:13;;;;;;;120.35;96.55;;;3.20;99.90;;;;;;5048612;28;20161;-86
2021/11/11 21:27:40;;;;;;;119.53;98.53;;;3.10;99.90;;;;;;5048947;28;20152;-87
2021/11/11 21:30:08;;;;;;;133.10;116.38;;;3.20;99.90;;;;;;5047444;28;20185;-87
2021/11/11 21:32:34;;;;;;;125.25;99.03;;;3.20;99.90;;;;;;5046541;28;20252;-87
2021/11/11 21:42:29;;;;;;;149.20;134.57;;;3.20;99.90;;;;;;5047792;28;20161;-87
2021/11/11 21:44:57;;;;;;;153.50;138.35;;;3.10;99.90;;;;;;5048020;28;20671;-87